createdAt,value
2023-02-11T00:01:24.006Z,36.63
2023-02-11T00:03:52.797Z,37.30
2023-02-11T00:06:21.293Z,37.33
2023-02-11T00:08:49.828Z,36.13
2023-02-11T00:11:20.129Z,36.30
2023-02-11T00:13:48.794Z,37.67
2023-02-11T00:16:19.060Z,36.30
2023-02-11T00:18:50.334Z,36.63
2023-02-11T00:21:20.494Z,36.80
2023-02-11T00:23:49.125Z,37.80
2023-02-11T00:26:20.337Z,42.43
2023-02-11T00:28:49.631Z,53.53
2023-02-11T00:31:19.571Z,50.60
2023-02-11T00:33:51.185Z,46.43
2023-02-11T00:36:21.770Z,48.87
2023-02-11T00:38:51.149Z,47.17
2023-02-11T00:41:20.872Z,46.73
2023-02-11T00:43:49.183Z,42.10
2023-02-11T00:46:20.261Z,39.80
2023-02-11T00:48:51.738Z,37.90
2023-02-11T00:51:22.699Z,35.93
2023-02-11T00:53:51.940Z,38.77
2023-02-11T00:56:20.272Z,36.87
2023-02-11T00:58:48.547Z,37.07
2023-02-11T01:01:18.712Z,37.77
2023-02-11T01:03:47.196Z,38.07
2023-02-11T01:06:17.428Z,39.20
2023-02-11T01:08:46.081Z,38.60
2023-02-11T01:11:16.950Z,38.60
2023-02-11T01:13:47.267Z,37.57
2023-02-11T01:16:17.512Z,36.03
2023-02-11T01:18:46.840Z,36.10
2023-02-11T01:21:16.150Z,36.57
2023-02-11T01:23:46.106Z,36.47
2023-02-11T01:26:14.750Z,36.47
2023-02-11T01:28:42.985Z,36.43
2023-02-11T01:31:11.332Z,36.63
2023-02-11T01:33:39.609Z,36.77
2023-02-11T01:36:09.464Z,35.50
2023-02-11T01:38:38.358Z,36.67
2023-02-11T01:41:10.110Z,35.57
2023-02-11T01:43:41.744Z,37.37
2023-02-11T01:46:25.755Z,35.63
2023-02-11T01:48:57.284Z,36.50
2023-02-11T01:51:30.568Z,35.10
2023-02-11T01:54:19.417Z,36.60
2023-02-11T01:57:21.772Z,35.10
2023-02-11T01:59:58.546Z,35.43
2023-02-11T02:02:33.842Z,34.83
2023-02-11T02:05:08.173Z,34.47
2023-02-11T02:07:42.164Z,34.53
2023-02-11T02:10:18.397Z,33.80
2023-02-11T02:12:47.959Z,34.53
2023-02-11T02:15:23.585Z,34.60
2023-02-11T02:18:09.386Z,33.10
2023-02-11T02:21:10.795Z,34.43
2023-02-11T02:23:54.531Z,32.83
2023-02-11T02:27:03.695Z,34.10
2023-02-11T02:30:10.748Z,32.20
2023-02-11T02:32:53.552Z,31.10
2023-02-11T02:35:31.322Z,32.97
2023-02-11T02:38:08.567Z,32.33
2023-02-11T02:40:42.113Z,32.23
2023-02-11T02:43:12.154Z,37.00
2023-02-11T02:45:40.592Z,40.50
2023-02-11T02:48:26.073Z,33.70
2023-02-11T02:51:04.616Z,35.00
2023-02-11T02:53:42.750Z,33.03
2023-02-11T02:56:16.315Z,33.87
2023-02-11T02:59:10.998Z,34.00
2023-02-11T03:01:50.535Z,31.27
2023-02-11T03:04:25.160Z,30.90
2023-02-11T03:06:57.116Z,31.37
2023-02-11T03:09:30.141Z,32.70
2023-02-11T03:11:58.651Z,32.90
2023-02-11T03:14:30.094Z,32.80
2023-02-11T03:17:01.300Z,33.37
2023-02-11T03:19:35.428Z,32.50
2023-02-11T03:22:06.566Z,33.80
2023-02-11T03:24:38.063Z,33.50
2023-02-11T03:27:13.642Z,33.13
2023-02-11T03:29:51.751Z,33.37
2023-02-11T03:32:26.132Z,34.57
2023-02-11T03:34:58.692Z,34.50
2023-02-11T03:37:32.230Z,35.20
2023-02-11T03:40:05.824Z,35.30
2023-02-11T03:42:40.076Z,35.80
2023-02-11T03:45:12.931Z,34.87
2023-02-11T03:47:45.393Z,35.40
2023-02-11T03:50:17.061Z,37.93
2023-02-11T03:52:47.155Z,38.93
2023-02-11T03:55:19.475Z,37.60
2023-02-11T03:57:48.324Z,36.33
2023-02-11T04:00:17.152Z,35.43
2023-02-11T04:02:45.755Z,35.17
2023-02-11T04:05:17.324Z,35.70
2023-02-11T04:07:45.563Z,35.13
2023-02-11T04:10:14.179Z,35.10
2023-02-11T04:12:42.373Z,36.63
2023-02-11T04:15:11.342Z,34.97
2023-02-11T04:17:39.612Z,34.60
2023-02-11T04:20:08.466Z,34.07
2023-02-11T04:22:38.677Z,34.63
2023-02-11T04:25:08.389Z,33.97
2023-02-11T04:27:37.121Z,34.80
2023-02-11T04:30:06.987Z,34.37
2023-02-11T04:32:35.112Z,34.73
2023-02-11T04:35:03.753Z,32.40
2023-02-11T04:37:32.096Z,33.70
2023-02-11T04:40:01.782Z,31.00
2023-02-11T04:42:29.895Z,33.10
2023-02-11T04:44:58.413Z,32.50
2023-02-11T04:47:26.693Z,32.47
2023-02-11T04:49:54.919Z,32.77
2023-02-11T04:52:23.269Z,33.17
2023-02-11T04:54:51.867Z,31.03
2023-02-11T04:57:21.437Z,32.57
2023-02-11T04:59:49.826Z,35.07
2023-02-11T05:02:18.097Z,34.70
2023-02-11T05:04:46.393Z,32.73
2023-02-11T05:07:14.657Z,31.70
2023-02-11T05:09:42.992Z,31.90
2023-02-11T05:12:11.541Z,30.60
2023-02-11T05:14:41.245Z,31.27
2023-02-11T05:17:09.551Z,30.87
2023-02-11T05:19:37.871Z,31.93
2023-02-11T05:22:06.197Z,31.47
2023-02-11T05:24:34.763Z,32.10
2023-02-11T05:27:03.700Z,31.83
2023-02-11T05:29:32.240Z,31.43
2023-02-11T05:32:01.857Z,35.57
2023-02-11T05:34:30.140Z,34.23
2023-02-11T05:36:58.388Z,32.27
2023-02-11T05:39:26.587Z,28.00
2023-02-11T05:41:54.683Z,29.70
2023-02-11T05:44:22.903Z,29.57
2023-02-11T05:46:51.174Z,29.23
2023-02-11T05:49:20.675Z,29.23
2023-02-11T05:51:49.175Z,28.47
2023-02-11T05:54:17.763Z,26.80
2023-02-11T05:56:46.373Z,27.40
2023-02-11T05:59:15.629Z,26.00
2023-02-11T06:01:44.260Z,27.07
2023-02-11T06:04:12.558Z,26.47
2023-02-11T06:06:42.504Z,29.80
2023-02-11T06:09:11.146Z,33.83
2023-02-11T06:11:39.474Z,26.63
2023-02-11T06:14:07.703Z,35.30
2023-02-11T06:16:35.934Z,33.50
2023-02-11T06:19:04.461Z,30.80
2023-02-11T06:21:43.420Z,25.63
2023-02-11T06:24:14.155Z,25.90
2023-02-11T06:26:42.679Z,26.23
2023-02-11T06:29:10.973Z,26.40
2023-02-11T06:31:40.224Z,31.23
2023-02-11T06:34:09.314Z,27.03
2023-02-11T06:36:39.339Z,27.43
2023-02-11T06:39:08.024Z,26.47
2023-02-11T06:41:37.787Z,26.17
2023-02-11T06:44:06.060Z,27.23
2023-02-11T06:46:34.413Z,27.70
2023-02-11T06:49:02.844Z,27.30
2023-02-11T06:51:31.043Z,27.23
2023-02-11T06:53:59.246Z,27.40
2023-02-11T06:56:28.121Z,37.00
2023-02-11T06:58:57.916Z,30.13
2023-02-11T07:01:28.103Z,32.47
2023-02-11T07:03:56.473Z,25.47
2023-02-11T07:06:27.734Z,25.93
2023-02-11T07:08:56.924Z,30.63
2023-02-11T07:11:28.677Z,27.23
2023-02-11T07:14:02.084Z,32.20
2023-02-11T07:16:30.498Z,28.60
2023-02-11T07:18:58.683Z,36.07
2023-02-11T07:21:27.100Z,32.73
2023-02-11T07:23:55.438Z,34.30
2023-02-11T07:26:25.834Z,32.13
2023-02-11T07:28:54.417Z,30.73
2023-02-11T07:31:26.896Z,31.07
2023-02-11T07:33:57.013Z,31.77
2023-02-11T07:36:25.370Z,29.87
2023-02-11T07:38:53.983Z,29.40
2023-02-11T07:41:24.052Z,30.63
2023-02-11T07:43:52.731Z,31.00
2023-02-11T07:46:24.199Z,31.57
2023-02-11T07:48:52.861Z,32.53
2023-02-11T07:51:23.363Z,29.60
2023-02-11T07:53:52.054Z,33.03
2023-02-11T07:56:21.614Z,31.87
2023-02-11T07:58:51.030Z,30.57
2023-02-11T08:01:25.278Z,31.73
2023-02-11T08:03:56.234Z,30.77
2023-02-11T08:06:26.747Z,32.90
2023-02-11T08:08:55.193Z,32.70
2023-02-11T08:11:25.073Z,31.57
2023-02-11T08:13:53.372Z,31.20
2023-02-11T08:16:23.232Z,32.40
2023-02-11T08:18:52.577Z,31.17
2023-02-11T08:21:22.339Z,30.90
2023-02-11T08:23:51.020Z,29.33
2023-02-11T08:26:21.326Z,29.87
2023-02-11T08:28:51.199Z,27.37
2023-02-11T08:31:21.905Z,27.53
2023-02-11T08:33:50.351Z,28.13
2023-02-11T08:36:23.175Z,29.17
2023-02-11T08:38:51.882Z,28.83
2023-02-11T08:41:20.039Z,27.47
2023-02-11T08:43:49.349Z,27.77
2023-02-11T08:46:20.125Z,26.50
2023-02-11T08:48:49.012Z,26.97
2023-02-11T08:51:19.712Z,27.97
2023-02-11T08:53:49.818Z,28.27
2023-02-11T08:56:20.689Z,28.40
2023-02-11T08:58:49.179Z,28.77
2023-02-11T09:01:22.645Z,28.63
2023-02-11T09:03:51.247Z,29.33
2023-02-11T09:06:19.637Z,29.03
2023-02-11T09:08:51.638Z,29.70
2023-02-11T09:11:21.260Z,28.73
2023-02-11T09:13:50.508Z,29.13
2023-02-11T09:16:22.237Z,27.67
2023-02-11T09:18:50.858Z,29.87
2023-02-11T09:21:20.336Z,33.87
2023-02-11T09:23:50.262Z,34.03
2023-02-11T09:26:20.496Z,34.97
2023-02-11T09:28:49.174Z,31.20
2023-02-11T09:31:19.848Z,34.97
2023-02-11T09:33:50.544Z,33.97
2023-02-11T09:36:21.117Z,33.43
2023-02-11T09:38:50.936Z,34.87
2023-02-11T09:41:34.982Z,32.83
2023-02-11T09:44:06.124Z,33.97
2023-02-11T09:46:37.478Z,34.33
2023-02-11T09:49:07.240Z,34.40
2023-02-11T09:51:41.767Z,36.70
2023-02-11T09:54:19.412Z,36.00
2023-02-11T09:56:47.668Z,35.17
2023-02-11T09:59:17.530Z,36.50
2023-02-11T10:01:51.327Z,35.73
2023-02-11T10:04:34.168Z,33.93
2023-02-11T10:07:09.136Z,34.67
2023-02-11T10:09:57.963Z,32.63
2023-02-11T10:12:40.010Z,34.50
2023-02-11T10:15:30.365Z,34.63
2023-02-11T10:18:09.613Z,34.47
2023-02-11T10:20:40.360Z,34.13
2023-02-11T10:23:14.159Z,34.37
2023-02-11T10:25:45.964Z,35.17
2023-02-11T10:28:16.481Z,34.70
2023-02-11T10:30:51.004Z,33.63
2023-02-11T10:33:25.913Z,34.67
2023-02-11T10:35:54.193Z,33.83
2023-02-11T10:38:22.720Z,33.60
2023-02-11T10:40:52.506Z,33.67
2023-02-11T10:43:25.757Z,32.70
2023-02-11T10:45:56.061Z,33.03
2023-02-11T10:48:42.895Z,31.33
2023-02-11T10:51:21.374Z,32.30
2023-02-11T10:53:50.952Z,32.07
2023-02-11T10:56:28.719Z,31.03
2023-02-11T10:59:00.995Z,31.63
2023-02-11T11:01:41.727Z,31.37
2023-02-11T11:04:37.398Z,31.57
2023-02-11T11:07:18.699Z,31.53
2023-02-11T11:09:53.452Z,31.20
2023-02-11T11:12:32.927Z,29.43
2023-02-11T11:15:03.243Z,31.23
2023-02-11T11:17:32.078Z,31.17
2023-02-11T11:20:17.446Z,30.20
2023-02-11T11:22:46.369Z,30.23
2023-02-11T11:25:23.823Z,30.90
2023-02-11T11:27:55.915Z,30.20
2023-02-11T11:30:28.144Z,28.90
2023-02-11T11:32:56.572Z,30.00
2023-02-11T11:35:27.924Z,28.73
2023-02-11T11:38:01.764Z,27.83
2023-02-11T11:40:31.935Z,28.10
2023-02-11T11:43:23.211Z,27.13
2023-02-11T11:45:56.771Z,26.80
2023-02-11T11:48:28.048Z,27.87
2023-02-11T11:50:59.534Z,27.17
2023-02-11T11:53:37.300Z,26.50
2023-02-11T11:56:07.347Z,26.88
2023-02-11T11:58:36.963Z,26.17
2023-02-11T12:01:17.029Z,25.98
2023-02-11T12:04:22.405Z,25.88
2023-02-11T12:07:01.963Z,25.92
2023-02-11T12:09:40.894Z,24.27
2023-02-11T12:12:32.446Z,23.77
2023-02-11T12:15:18.278Z,23.05
2023-02-11T12:17:59.638Z,22.27
2023-02-11T12:20:34.155Z,21.77
2023-02-11T12:23:17.917Z,21.08
2023-02-11T12:25:54.297Z,21.52
2023-02-11T12:28:32.600Z,19.77
2023-02-11T12:31:14.380Z,15.57
2023-02-11T12:33:59.121Z,17.05
2023-02-11T12:36:43.691Z,16.77
2023-02-11T12:39:23.829Z,19.95
2023-02-11T12:42:35.387Z,20.48
2023-02-11T12:45:22.537Z,19.27
2023-02-11T12:48:06.620Z,17.83
2023-02-11T12:50:42.031Z,15.88
2023-02-11T12:53:25.452Z,12.93
2023-02-11T12:55:59.384Z,13.38
2023-02-11T12:58:44.187Z,11.82
2023-02-11T13:01:20.472Z,17.98
2023-02-11T13:03:55.411Z,12.10
2023-02-11T13:06:28.592Z,11.77
2023-02-11T13:09:01.886Z,11.45
2023-02-11T13:11:38.580Z,10.85
2023-02-11T13:14:13.630Z,10.65
2023-02-11T13:16:47.111Z,11.15
2023-02-11T13:19:26.639Z,11.82
2023-02-11T13:22:06.992Z,12.00
2023-02-11T13:24:44.237Z,12.93
2023-02-11T13:27:25.877Z,11.75
2023-02-11T13:30:33.398Z,15.63
2023-02-11T13:33:07.760Z,55.53
2023-02-11T13:35:39.572Z,12.63
2023-02-11T13:38:18.712Z,12.90
2023-02-11T13:40:58.603Z,12.10
2023-02-11T13:43:29.635Z,12.13
2023-02-11T13:46:02.184Z,12.93
2023-02-11T13:48:33.121Z,13.45
2023-02-11T13:51:06.206Z,14.25
2023-02-11T13:53:47.610Z,13.82
2023-02-11T13:56:30.159Z,14.82
2023-02-11T13:59:01.986Z,16.60
2023-02-11T14:01:42.390Z,15.60
2023-02-11T14:04:55.341Z,15.35
2023-02-11T14:07:49.534Z,15.38
2023-02-11T14:10:52.222Z,16.20
2023-02-11T14:13:25.360Z,15.27
2023-02-11T14:16:07.025Z,16.77
2023-02-11T14:19:00.620Z,17.05
2023-02-11T14:21:38.254Z,17.48
2023-02-11T14:24:46.413Z,16.98
2023-02-11T14:27:23.164Z,17.63
2023-02-11T14:30:03.679Z,16.35
2023-02-11T14:32:45.635Z,18.13
2023-02-11T14:35:23.264Z,17.20
2023-02-11T14:37:59.693Z,17.38
2023-02-11T14:40:34.440Z,17.50
2023-02-11T14:43:13.876Z,18.05
2023-02-11T14:45:45.763Z,18.27
2023-02-11T14:48:17.845Z,16.85
2023-02-11T14:50:50.403Z,18.73
2023-02-11T14:53:22.411Z,18.27
2023-02-11T14:55:54.434Z,19.33
2023-02-11T14:58:24.886Z,17.00
2023-02-11T15:00:56.846Z,18.73
2023-02-11T15:03:31.280Z,17.67
2023-02-11T15:06:01.663Z,18.35
2023-02-11T15:08:31.213Z,17.73
2023-02-11T15:11:04.052Z,18.13
2023-02-11T15:13:34.702Z,18.50
2023-02-11T15:16:10.141Z,21.27
2023-02-11T15:18:43.542Z,28.17
2023-02-11T15:21:12.116Z,20.60
2023-02-11T15:23:42.713Z,19.27
2023-02-11T15:26:16.178Z,20.88
2023-02-11T15:28:52.642Z,19.38
2023-02-11T15:31:24.295Z,18.70
2023-02-11T15:33:53.515Z,18.02
2023-02-11T15:36:28.481Z,19.52
2023-02-11T15:39:19.728Z,20.40
2023-02-11T15:41:49.392Z,20.30
2023-02-11T15:44:32.029Z,20.42
2023-02-11T15:47:00.949Z,19.88
2023-02-11T15:49:29.594Z,21.60
2023-02-11T15:51:58.935Z,23.10
2023-02-11T15:54:31.608Z,21.30
2023-02-11T15:57:05.579Z,22.40
2023-02-11T15:59:38.303Z,21.93
2023-02-11T16:02:10.279Z,29.27
2023-02-11T16:04:38.995Z,33.13
2023-02-11T16:07:07.293Z,30.33
2023-02-11T16:09:36.733Z,27.37
2023-02-11T16:12:24.335Z,30.40
2023-02-11T16:14:52.696Z,28.40
2023-02-11T16:17:26.916Z,26.73
2023-02-11T16:19:55.867Z,32.70
2023-02-11T16:22:27.478Z,26.80
2023-02-11T16:24:59.076Z,28.10
2023-02-11T16:27:30.969Z,28.37
2023-02-11T16:29:59.923Z,33.87
2023-02-11T16:32:29.924Z,36.67
2023-02-11T16:35:00.777Z,32.90
2023-02-11T16:37:29.313Z,33.13
2023-02-11T16:39:58.506Z,32.83
2023-02-11T16:42:28.150Z,33.20
2023-02-11T16:44:56.558Z,33.20
2023-02-11T16:47:26.186Z,32.20
2023-02-11T16:49:55.164Z,36.17
2023-02-11T16:52:24.144Z,33.57
2023-02-11T16:54:52.719Z,34.30
2023-02-11T16:57:23.433Z,36.20
2023-02-11T16:59:53.194Z,35.10
2023-02-11T17:02:25.639Z,33.57
2023-02-11T17:04:55.046Z,34.03
2023-02-11T17:07:23.518Z,32.70
2023-02-11T17:09:52.619Z,32.77
2023-02-11T17:12:20.864Z,33.37
2023-02-11T17:14:49.091Z,32.43
2023-02-11T17:17:18.926Z,32.17
2023-02-11T17:19:47.972Z,32.90
2023-02-11T17:22:16.334Z,34.47
2023-02-11T17:24:44.552Z,40.53
2023-02-11T17:27:13.701Z,41.67
2023-02-11T17:29:41.954Z,40.10
2023-02-11T17:32:10.244Z,38.83
2023-02-11T17:34:39.960Z,39.43
2023-02-11T17:37:09.455Z,37.60
2023-02-11T17:39:37.863Z,39.37
2023-02-11T17:42:07.056Z,41.40
2023-02-11T17:44:35.707Z,42.13
2023-02-11T17:47:03.966Z,44.47
2023-02-11T17:49:32.218Z,38.87
2023-02-11T17:52:01.845Z,44.70
2023-02-11T17:54:30.216Z,47.73
2023-02-11T17:56:58.677Z,47.23
2023-02-11T17:59:29.839Z,39.80
2023-02-11T18:01:58.411Z,45.20
2023-02-11T18:04:26.790Z,49.80
2023-02-11T18:06:55.176Z,47.90
2023-02-11T18:09:25.002Z,37.23
2023-02-11T18:11:53.499Z,41.03
2023-02-11T18:14:22.677Z,45.17
2023-02-11T18:16:52.255Z,37.67
2023-02-11T18:19:21.063Z,30.93
2023-02-11T18:21:50.938Z,36.50
2023-02-11T18:24:19.967Z,53.17
2023-02-11T18:26:49.560Z,41.13
2023-02-11T18:29:17.854Z,41.47
2023-02-11T18:31:46.370Z,41.27
2023-02-11T18:34:15.968Z,40.83
2023-02-11T18:36:44.421Z,39.37
2023-02-11T18:39:12.558Z,35.30
2023-02-11T18:41:42.305Z,27.30
2023-02-11T18:44:14.136Z,26.40
2023-02-11T18:46:42.769Z,24.30
2023-02-11T18:49:13.094Z,28.17
2023-02-11T18:51:41.398Z,28.00
2023-02-11T18:54:09.649Z,27.87
2023-02-11T18:56:38.218Z,27.40
2023-02-11T18:59:06.443Z,28.27
2023-02-11T19:01:36.361Z,27.70
2023-02-11T19:04:06.223Z,26.43
2023-02-11T19:06:36.716Z,25.70
2023-02-11T19:09:08.212Z,27.60
2023-02-11T19:11:49.680Z,26.77
2023-02-11T19:14:20.864Z,26.57
2023-02-11T19:16:52.766Z,27.60
2023-02-11T19:19:24.487Z,29.17
2023-02-11T19:21:52.792Z,29.13
2023-02-11T19:24:20.961Z,35.53
2023-02-11T19:26:50.758Z,30.37
2023-02-11T19:29:19.003Z,29.73
2023-02-11T19:31:47.392Z,28.17
2023-02-11T19:34:19.848Z,28.80
2023-02-11T19:36:50.216Z,31.43
2023-02-11T19:39:18.780Z,33.70
2023-02-11T19:41:47.111Z,30.47
2023-02-11T19:44:16.140Z,30.33
2023-02-11T19:46:44.646Z,32.37
2023-02-11T19:49:22.953Z,31.47
2023-02-11T19:51:51.371Z,32.77
2023-02-11T19:54:20.212Z,31.60
2023-02-11T19:56:49.108Z,33.70
2023-02-11T19:59:17.386Z,35.37
2023-02-11T20:01:47.786Z,36.70
2023-02-11T20:04:17.754Z,34.60
2023-02-11T20:06:48.055Z,33.20
2023-02-11T20:09:16.495Z,31.33
2023-02-11T20:11:44.976Z,31.17
2023-02-11T20:14:14.826Z,31.47
2023-02-11T20:16:49.082Z,30.03
2023-02-11T20:19:21.809Z,30.63
2023-02-11T20:21:53.394Z,29.57
2023-02-11T20:24:22.341Z,38.83
2023-02-11T20:26:55.232Z,41.87
2023-02-11T20:29:24.811Z,42.40
2023-02-11T20:31:53.076Z,41.80
2023-02-11T20:34:22.857Z,30.80
2023-02-11T20:36:52.868Z,28.10
2023-02-11T20:39:22.625Z,29.90
2023-02-11T20:41:52.378Z,29.87
2023-02-11T20:44:22.538Z,30.40
2023-02-11T20:46:52.114Z,31.40
2023-02-11T20:49:23.684Z,31.20
2023-02-11T20:51:53.618Z,31.57
2023-02-11T20:54:23.260Z,31.17
2023-02-11T20:56:53.542Z,30.80
2023-02-11T20:59:22.130Z,30.90
2023-02-11T21:01:53.387Z,32.50
2023-02-11T21:04:25.663Z,30.13
2023-02-11T21:06:56.601Z,35.37
2023-02-11T21:09:26.918Z,32.83
2023-02-11T21:11:55.848Z,30.87
2023-02-11T21:14:26.189Z,30.67
2023-02-11T21:16:54.436Z,29.33
2023-02-11T21:19:24.757Z,29.70
2023-02-11T21:21:54.731Z,30.67
2023-02-11T21:24:23.763Z,29.27
2023-02-11T21:26:51.974Z,27.13
2023-02-11T21:29:20.432Z,26.43
2023-02-11T21:31:48.747Z,29.53
2023-02-11T21:34:20.044Z,30.00
2023-02-11T21:36:51.185Z,30.20
2023-02-11T21:39:20.193Z,31.10
2023-02-11T21:41:48.394Z,28.23
2023-02-11T21:44:16.869Z,27.73
2023-02-11T21:46:45.713Z,36.53
2023-02-11T21:49:14.276Z,34.70
2023-02-11T21:51:42.686Z,30.60
2023-02-11T21:54:12.976Z,29.50
2023-02-11T21:56:41.113Z,29.67
2023-02-11T21:59:12.646Z,28.40
2023-02-11T22:01:40.980Z,28.03
2023-02-11T22:04:10.412Z,28.17
2023-02-11T22:06:38.618Z,28.10
2023-02-11T22:09:08.775Z,28.77
2023-02-11T22:11:38.302Z,28.53
2023-02-11T22:14:06.921Z,29.77
2023-02-11T22:16:35.162Z,30.13
2023-02-11T22:19:03.461Z,30.67
2023-02-11T22:21:31.830Z,30.00
2023-02-11T22:24:00.022Z,29.50
2023-02-11T22:26:29.184Z,30.13
2023-02-11T22:28:58.951Z,30.23
2023-02-11T22:31:30.141Z,31.87
2023-02-11T22:33:58.806Z,31.30
2023-02-11T22:36:28.540Z,31.07
2023-02-11T22:38:57.436Z,31.23
2023-02-11T22:41:25.667Z,29.97
2023-02-11T22:43:54.109Z,30.77
2023-02-11T22:46:23.879Z,30.60
2023-02-11T22:48:52.390Z,33.50
2023-02-11T22:51:23.244Z,34.27
2023-02-11T22:53:52.906Z,31.20
2023-02-11T22:56:21.482Z,31.60
2023-02-11T22:58:50.624Z,31.40
2023-02-11T23:01:19.756Z,30.17
2023-02-11T23:03:49.490Z,30.03
2023-02-11T23:06:18.161Z,28.90
2023-02-11T23:08:46.607Z,28.93
2023-02-11T23:11:17.249Z,31.20
2023-02-11T23:13:47.280Z,31.53
2023-02-11T23:16:17.333Z,30.13
2023-02-11T23:18:46.802Z,30.87
2023-02-11T23:21:19.113Z,29.40
2023-02-11T23:23:47.786Z,29.13
2023-02-11T23:26:18.751Z,31.07
2023-02-11T23:28:47.393Z,32.27
2023-02-11T23:31:17.392Z,30.60
2023-02-11T23:33:46.357Z,31.13
2023-02-11T23:36:16.860Z,31.37
2023-02-11T23:38:45.013Z,28.10
2023-02-11T23:41:14.126Z,28.20
2023-02-11T23:43:42.557Z,26.43
2023-02-11T23:46:11.437Z,29.83
2023-02-11T23:48:40.531Z,29.03
2023-02-11T23:51:10.079Z,29.93
2023-02-11T23:53:40.523Z,33.30
2023-02-11T23:56:09.995Z,32.07
2023-02-11T23:58:38.491Z,30.60
